Time;durP1;ratioP1;P1;durP2;ratioP2;P2;SDS_P1;SDS_P2;PMS_P1;PMS_P2;Temp;Humidity;BMP_temperature;BMP_pressure;BME280_temperature;BME280_humidity;BME280_pressure;Samples;Min_cycle;Max_cycle;Signal;HPM_P1;HPM_P2
2022/07/05 00:00:05;;;;;;;9.77;2.33;;;29.10;55.20;;;;;;5112703;28;20039;-70
2022/07/05 00:02:31;;;;;;;11.80;1.88;;;29.10;55.30;;;;;;5113079;28;20040;-70
2022/07/05 00:04:57;;;;;;;8.75;1.95;;;29.10;54.60;;;;;;5112844;28;20420;-70
2022/07/05 00:07:23;;;;;;;11.07;2.28;;;29.10;55.20;;;;;;5112901;28;20035;-70
2022/07/05 00:09:52;;;;;;;10.45;2.40;;;29.10;55.80;;;;;;5115305;28;20024;-70
2022/07/05 00:12:20;;;;;;;19.90;2.05;;;29.00;55.90;;;;;;5116380;28;20032;-71
2022/07/05 00:14:48;;;;;;;6.65;2.00;;;29.00;55.50;;;;;;5116447;28;20500;-70
2022/07/05 00:17:14;;;;;;;15.13;2.40;;;29.00;54.80;;;;;;5116304;28;20495;-70
2022/07/05 00:19:40;;;;;;;10.60;1.80;;;29.00;54.40;;;;;;5116504;28;20118;-69
2022/07/05 00:22:06;;;;;;;18.73;2.28;;;29.00;55.30;;;;;;5116155;28;20043;-70
2022/07/05 00:24:31;;;;;;;11.75;2.35;;;29.00;54.60;;;;;;5116206;28;20476;-71
2022/07/05 00:26:57;;;;;;;13.55;2.72;;;29.10;54.10;;;;;;5115969;28;20111;-71
2022/07/05 00:29:23;;;;;;;17.38;2.28;;;29.10;54.10;;;;;;5115993;28;20085;-70
2022/07/05 00:31:49;;;;;;;14.07;2.20;;;29.00;54.80;;;;;;5116059;28;20044;-70
2022/07/05 00:34:15;;;;;;;10.90;2.25;;;29.00;55.20;;;;;;5116235;28;20114;-71
2022/07/05 00:36:41;;;;;;;17.35;2.40;;;29.00;55.80;;;;;;5115880;28;20028;-71
2022/07/05 00:39:07;;;;;;;9.40;2.40;;;28.90;56.60;;;;;;5115864;28;20476;-71
2022/07/05 00:41:33;;;;;;;12.60;2.40;;;28.80;56.80;;;;;;5115935;28;20057;-71
2022/07/05 00:44:05;;;;;;;13.27;2.60;;;28.80;57.00;;;;;;5116149;28;20114;-72
2022/07/05 00:46:31;;;;;;;11.45;2.58;;;28.90;58.20;;;;;;5115795;28;20027;-73
2022/07/05 00:48:58;;;;;;;16.52;2.65;;;28.90;58.70;;;;;;5116039;28;20408;-72
2022/07/05 00:51:25;;;;;;;12.50;2.83;;;28.90;59.60;;;;;;5115686;28;20590;-70
2022/07/05 00:53:51;;;;;;;28.23;3.08;;;28.80;60.50;;;;;;5115523;28;20110;-72
2022/07/05 00:56:19;;;;;;;10.93;2.50;;;28.70;61.60;;;;;;5115519;28;20036;-72
2022/07/05 00:58:45;;;;;;;8.43;2.70;;;28.60;63.40;;;;;;5113355;28;20611;-72
2022/07/05 01:01:11;;;;;;;11.68;3.33;;;28.40;63.70;;;;;;5112917;28;20075;-72
2022/07/05 01:03:37;;;;;;;22.98;3.25;;;28.30;66.30;;;;;;5112886;28;20052;-72
2022/07/05 01:06:06;;;;;;;12.10;3.70;;;28.20;67.10;;;;;;5115227;28;20397;-72
2022/07/05 01:08:35;;;;;;;8.65;2.70;;;28.20;67.60;;;;;;5115155;28;20046;-71
2022/07/05 01:11:01;;;;;;;10.60;2.75;;;28.10;66.80;;;;;;5115416;28;20049;-72
2022/07/05 01:13:27;;;;;;;10.65;3.33;;;28.00;67.10;;;;;;5115065;27;20085;-71
2022/07/05 01:15:55;;;;;;;13.98;3.00;;;27.80;66.60;;;;;;5115316;28;20053;-71
2022/07/05 01:18:21;;;;;;;11.80;3.13;;;27.70;67.10;;;;;;5115071;28;20050;-70
2022/07/05 01:20:50;;;;;;;8.60;2.50;;;27.70;66.70;;;;;;5113550;28;20027;-69
2022/07/05 01:23:19;;;;;;;9.48;2.95;;;27.60;66.60;;;;;;5114891;28;20584;-71
2022/07/05 01:25:47;;;;;;;9.63;2.70;;;27.50;70.00;;;;;;5114973;28;20070;-71
2022/07/05 01:28:13;;;;;;;14.00;3.05;;;27.40;69.20;;;;;;5114653;28;20522;-71
2022/07/05 01:30:40;;;;;;;11.65;3.00;;;27.30;68.60;;;;;;5114952;28;20157;-71
2022/07/05 01:33:07;;;;;;;9.75;3.25;;;27.20;69.60;;;;;;5114990;28;20431;-71
2022/07/05 01:35:33;;;;;;;14.55;3.25;;;27.20;70.20;;;;;;5114124;28;20111;-71
2022/07/05 01:37:59;;;;;;;15.60;4.20;;;27.10;70.90;;;;;;5114617;28;20112;-70
2022/07/05 01:40:25;;;;;;;10.52;3.33;;;27.10;71.40;;;;;;5114764;28;20032;-70
2022/07/05 01:42:51;;;;;;;10.23;3.15;;;27.10;71.50;;;;;;5114169;28;20122;-72
2022/07/05 01:48:07;;;;;;;12.15;3.53;;;27.10;71.60;;;;;;5114567;28;20054;-71
2022/07/05 01:50:51;;;;;;;13.32;3.30;;;27.00;70.50;;;;;;5114278;28;20027;-72
2022/07/05 01:53:27;;;;;;;9.10;3.00;;;27.00;69.80;;;;;;5113997;28;20489;-71
2022/07/05 01:55:53;;;;;;;14.25;2.95;;;26.90;69.40;;;;;;5114348;28;20050;-72
2022/07/05 01:58:18;;;;;;;10.23;3.28;;;26.90;69.60;;;;;;5114309;28;20028;-71
2022/07/05 02:00:50;;;;;;;10.65;3.38;;;26.90;69.50;;;;;;5114259;28;20035;-70
2022/07/05 02:03:16;;;;;;;18.83;3.08;;;26.80;69.10;;;;;;5114298;28;20027;-71
2022/07/05 02:05:43;;;;;;;14.38;3.38;;;26.80;68.70;;;;;;5114103;27;20035;-72
2022/07/05 02:08:10;;;;;;;7.25;3.00;;;26.80;67.80;;;;;;5114360;28;20048;-71
2022/07/05 02:10:36;;;;;;;6.63;3.35;;;26.80;68.00;;;;;;5114301;28;20028;-71
2022/07/05 02:13:03;;;;;;;6.22;3.00;;;26.80;69.10;;;;;;5114186;28;20547;-71
2022/07/05 02:15:34;;;;;;;8.43;2.85;;;26.70;67.60;;;;;;5113957;28;20039;-71
2022/07/05 02:18:01;;;;;;;9.73;3.08;;;26.70;68.10;;;;;;5113832;28;20118;-71
2022/07/05 02:20:27;;;;;;;7.45;3.05;;;26.70;68.90;;;;;;5113895;28;20066;-69
2022/07/05 02:22:53;;;;;;;9.75;3.10;;;26.60;68.40;;;;;;5114064;28;20508;-71
2022/07/05 02:25:19;;;;;;;9.95;3.20;;;26.60;68.70;;;;;;5114068;28;20058;-71
2022/07/05 02:27:45;;;;;;;8.35;3.33;;;26.60;68.60;;;;;;5113879;28;20073;-71
2022/07/05 02:30:11;;;;;;;13.52;3.45;;;26.50;69.00;;;;;;5114007;28;20040;-71
2022/07/05 02:32:37;;;;;;;8.88;3.45;;;26.50;69.20;;;;;;5113562;28;20050;-71
2022/07/05 02:35:03;;;;;;;10.05;3.25;;;26.60;68.90;;;;;;5113836;28;20470;-71
2022/07/05 02:37:29;;;;;;;12.50;2.85;;;26.60;69.30;;;;;;5113877;28;20030;-71
2022/07/05 02:39:55;;;;;;;6.35;2.92;;;26.50;68.50;;;;;;5113638;28;20031;-71
2022/07/05 02:42:21;;;;;;;7.15;2.90;;;26.50;68.70;;;;;;5113478;28;20040;-70
2022/07/05 02:44:46;;;;;;;8.38;2.80;;;26.50;69.00;;;;;;5113675;28;20039;-71
2022/07/05 02:47:12;;;;;;;10.23;2.60;;;26.50;69.00;;;;;;5113488;28;20035;-70
2022/07/05 02:49:38;;;;;;;10.52;3.00;;;26.40;69.10;;;;;;5113421;28;20039;-71
2022/07/05 02:52:04;;;;;;;5.63;2.58;;;26.50;69.70;;;;;;5113303;28;20031;-71
2022/07/05 02:54:29;;;;;;;11.30;2.67;;;26.40;69.30;;;;;;5113707;28;20063;-71
2022/07/05 02:56:55;;;;;;;4.13;2.00;;;26.40;69.00;;;;;;5113460;28;20034;-71
2022/07/05 02:59:21;;;;;;;7.35;2.70;;;26.40;68.30;;;;;;5113238;28;20032;-70
2022/07/05 03:01:46;;;;;;;4.32;2.15;;;26.40;68.50;;;;;;5113335;28;20032;-71
2022/07/05 03:04:12;;;;;;;3.95;2.50;;;26.40;69.10;;;;;;5113193;28;20031;-71
2022/07/05 03:06:38;;;;;;;5.57;2.47;;;26.40;69.90;;;;;;5113192;28;20024;-71
2022/07/05 03:09:04;;;;;;;4.72;2.53;;;26.40;69.70;;;;;;5113356;28;20088;-71
2022/07/05 03:11:30;;;;;;;3.67;2.20;;;26.30;70.20;;;;;;5113197;28;20027;-71
2022/07/05 03:13:56;;;;;;;5.55;2.35;;;26.40;70.40;;;;;;5113218;28;20040;-71
2022/07/05 03:16:23;;;;;;;7.32;2.35;;;26.30;70.30;;;;;;5113154;28;20092;-70
2022/07/05 03:18:49;;;;;;;4.93;2.67;;;26.20;71.30;;;;;;5113474;28;20435;-71
2022/07/05 03:21:15;;;;;;;4.07;2.58;;;26.20;71.10;;;;;;5113372;28;20497;-71
2022/07/05 03:23:41;;;;;;;7.28;2.67;;;26.20;71.00;;;;;;5112890;28;20066;-71
2022/07/05 03:26:07;;;;;;;6.60;2.38;;;26.20;71.10;;;;;;5112841;28;20721;-71
2022/07/05 03:28:33;;;;;;;4.75;2.45;;;26.10;71.60;;;;;;5113085;28;20051;-71
2022/07/05 03:30:59;;;;;;;7.53;2.60;;;26.10;71.50;;;;;;5113118;28;20031;-71
2022/07/05 03:33:24;;;;;;;5.70;2.90;;;26.10;71.40;;;;;;5113318;28;20028;-71
2022/07/05 03:35:50;;;;;;;5.40;2.88;;;26.00;72.30;;;;;;5112990;28;20024;-71
2022/07/05 03:38:16;;;;;;;5.90;2.50;;;26.00;72.60;;;;;;5112936;28;20492;-71
2022/07/05 03:40:41;;;;;;;6.13;3.00;;;25.90;73.00;;;;;;5112891;28;20089;-71
2022/07/05 03:43:07;;;;;;;7.53;3.13;;;25.90;73.50;;;;;;5113370;28;20039;-71
2022/07/05 03:45:33;;;;;;;5.57;2.65;;;25.80;74.10;;;;;;5117018;28;20027;-71
2022/07/05 03:47:59;;;;;;;4.82;3.13;;;25.80;74.20;;;;;;5117007;28;20481;-71
2022/07/05 03:50:25;;;;;;;8.63;2.95;;;25.80;73.80;;;;;;5116732;28;20035;-71
2022/07/05 03:52:51;;;;;;;4.22;2.75;;;25.80;73.50;;;;;;5117251;28;20071;-71
2022/07/05 03:55:17;;;;;;;5.50;2.60;;;25.70;73.10;;;;;;5116606;28;20055;-71
2022/07/05 03:57:43;;;;;;;6.57;3.00;;;25.70;74.60;;;;;;5116920;28;20458;-71
2022/07/05 04:00:09;;;;;;;5.50;2.83;;;25.70;74.70;;;;;;5116874;28;20077;-71
2022/07/05 04:02:35;;;;;;;7.95;3.10;;;25.70;73.90;;;;;;5116790;28;20070;-69
2022/07/05 04:05:01;;;;;;;8.40;3.22;;;25.70;73.90;;;;;;5116537;28;20031;-70
2022/07/05 04:07:26;;;;;;;11.55;3.50;;;25.70;74.00;;;;;;5116493;28;20393;-73
2022/07/05 04:09:52;;;;;;;7.47;3.08;;;25.70;74.80;;;;;;5116467;28;20144;-71
2022/07/05 04:12:18;;;;;;;6.35;2.97;;;25.70;74.50;;;;;;5116548;28;20039;-71
2022/07/05 04:14:43;;;;;;;8.68;2.78;;;25.70;74.10;;;;;;5116726;28;20036;-71
2022/07/05 04:17:09;;;;;;;8.27;2.70;;;25.70;73.60;;;;;;5116213;28;20044;-71
2022/07/05 04:19:35;;;;;;;4.72;2.60;;;25.70;73.10;;;;;;5116395;28;20065;-71
2022/07/05 04:22:01;;;;;;;9.23;3.08;;;25.70;73.10;;;;;;5116134;27;20073;-71
2022/07/05 04:24:27;;;;;;;3.47;2.55;;;25.70;74.10;;;;;;5113388;28;20032;-71
2022/07/05 04:26:52;;;;;;;5.55;2.72;;;25.70;74.00;;;;;;5113556;28;20036;-71
2022/07/05 04:29:18;;;;;;;6.43;3.08;;;25.80;73.50;;;;;;5115748;28;20440;-71
2022/07/05 04:31:44;;;;;;;8.80;3.15;;;25.80;73.40;;;;;;5116393;28;20367;-70
2022/07/05 04:34:09;;;;;;;6.40;3.00;;;25.80;72.90;;;;;;5115889;28;20047;-71
2022/07/05 04:36:36;;;;;;;6.75;2.67;;;25.80;73.50;;;;;;5116316;28;20028;-71
2022/07/05 04:39:04;;;;;;;5.03;2.80;;;25.90;73.70;;;;;;5115807;28;20119;-70
2022/07/05 04:41:29;;;;;;;3.75;2.78;;;26.00;74.20;;;;;;5115696;28;20477;-70
2022/07/05 04:43:55;;;;;;;6.93;3.28;;;26.00;74.30;;;;;;5115690;28;20062;-70
2022/07/05 04:46:21;;;;;;;8.05;3.03;;;26.00;74.40;;;;;;5115623;28;20443;-70
2022/07/05 04:48:47;;;;;;;6.70;2.60;;;26.10;73.70;;;;;;5116465;28;20067;-69
2022/07/05 04:51:12;;;;;;;5.95;2.63;;;26.20;73.20;;;;;;5115401;28;20062;-70
2022/07/05 04:53:38;;;;;;;5.40;2.70;;;26.20;71.80;;;;;;5115180;28;20516;-71
2022/07/05 04:56:05;;;;;;;4.88;2.35;;;26.30;70.30;;;;;;5114550;28;20031;-71
2022/07/05 04:58:31;;;;;;;4.85;2.25;;;26.20;69.50;;;;;;5115713;28;20055;-70
2022/07/05 05:00:57;;;;;;;7.10;2.58;;;26.30;69.00;;;;;;5115276;28;20501;-70
2022/07/05 05:03:23;;;;;;;7.82;2.60;;;26.40;68.90;;;;;;5115631;28;20366;-71
2022/07/05 05:05:49;;;;;;;4.32;2.28;;;26.40;68.60;;;;;;5115493;28;20032;-69
2022/07/05 05:08:14;;;;;;;8.20;2.00;;;26.50;67.90;;;;;;5115078;27;20047;-74
2022/07/05 05:10:40;;;;;;;2.20;1.80;;;26.40;67.90;;;;;;5115279;28;20043;-69
2022/07/05 05:13:05;;;;;;;7.75;2.35;;;26.50;67.60;;;;;;5115433;28;20032;-73
2022/07/05 05:15:31;;;;;;;4.38;2.20;;;26.50;66.80;;;;;;5115206;28;20027;-68
2022/07/05 05:17:57;;;;;;;8.43;2.30;;;26.50;67.60;;;;;;5115176;28;20036;-68
2022/07/05 05:20:22;;;;;;;6.28;2.13;;;26.50;67.30;;;;;;5115282;28;20028;-69
2022/07/05 05:22:48;;;;;;;4.80;2.33;;;26.60;67.10;;;;;;5114852;28;20028;-68
2022/07/05 05:25:14;;;;;;;6.95;2.30;;;26.60;67.00;;;;;;5115214;28;20040;-68
2022/07/05 05:27:44;;;;;;;6.78;2.47;;;26.60;66.50;;;;;;5115102;28;20043;-68
2022/07/05 05:30:11;;;;;;;3.90;2.38;;;26.60;66.30;;;;;;5115228;28;20119;-69
2022/07/05 05:32:37;;;;;;;4.68;2.08;;;26.70;66.50;;;;;;5115051;28;20036;-68
2022/07/05 05:35:03;;;;;;;8.07;2.35;;;26.70;66.30;;;;;;5115123;28;20032;-69
2022/07/05 05:37:29;;;;;;;3.38;1.90;;;26.70;66.60;;;;;;5114296;28;20051;-68
2022/07/05 05:39:55;;;;;;;4.22;2.05;;;26.80;68.00;;;;;;5114258;28;20070;-69
2022/07/05 05:42:20;;;;;;;5.05;2.28;;;26.80;67.20;;;;;;5114415;28;20107;-69
2022/07/05 05:44:46;;;;;;;5.90;1.92;;;26.80;67.00;;;;;;5113988;28;20074;-69
2022/07/05 05:47:12;;;;;;;6.68;2.40;;;26.80;66.60;;;;;;5114066;28;20047;-69
2022/07/05 05:49:37;;;;;;;6.07;2.30;;;26.80;66.90;;;;;;5114503;28;20031;-69
2022/07/05 05:52:03;;;;;;;5.20;2.20;;;26.80;67.10;;;;;;5114325;28;20035;-69
2022/07/05 05:54:29;;;;;;;5.28;2.03;;;26.90;66.10;;;;;;5114239;28;20031;-68
2022/07/05 05:56:55;;;;;;;5.70;2.10;;;26.90;66.00;;;;;;5114020;28;20023;-69
2022/07/05 05:59:20;;;;;;;5.60;2.25;;;26.90;65.90;;;;;;5114183;28;20489;-70
2022/07/05 06:01:46;;;;;;;6.57;2.42;;;26.90;66.30;;;;;;5114174;28;20028;-69
2022/07/05 06:04:12;;;;;;;4.55;2.10;;;27.00;66.50;;;;;;5114497;28;20039;-69
2022/07/05 06:06:37;;;;;;;26.83;7.20;;;27.00;66.70;;;;;;5113918;28;20031;-69
2022/07/05 06:09:03;;;;;;;6.38;3.50;;;27.00;67.60;;;;;;5114405;28;20040;-69
2022/07/05 06:11:30;;;;;;;8.45;2.05;;;27.10;68.00;;;;;;5114210;28;20385;-69
2022/07/05 06:13:55;;;;;;;6.93;2.58;;;27.10;68.00;;;;;;5113892;28;20036;-69
2022/07/05 06:16:21;;;;;;;4.07;2.40;;;27.20;67.50;;;;;;5114004;28;20055;-69
2022/07/05 06:18:47;;;;;;;8.50;1.92;;;27.20;67.40;;;;;;5114038;28;20075;-69
2022/07/05 06:21:13;;;;;;;6.10;2.05;;;27.20;67.10;;;;;;5113041;28;20508;-71
2022/07/05 06:23:38;;;;;;;4.57;1.90;;;27.20;66.50;;;;;;5112771;28;20067;-69
2022/07/05 06:26:04;;;;;;;4.25;2.10;;;27.20;67.20;;;;;;5113884;28;20020;-69
2022/07/05 06:28:31;;;;;;;5.80;2.42;;;27.30;67.30;;;;;;5109770;28;20052;-69
2022/07/05 06:30:57;;;;;;;5.95;2.50;;;27.30;67.10;;;;;;5112300;28;20036;-69
2022/07/05 06:33:23;;;;;;;6.18;2.30;;;27.30;66.40;;;;;;5110636;28;20051;-69
2022/07/05 06:35:49;;;;;;;4.97;2.22;;;27.30;65.80;;;;;;5109055;28;20492;-68
2022/07/05 06:38:14;;;;;;;5.82;2.45;;;27.40;65.90;;;;;;5110531;28;20032;-69
2022/07/05 06:40:42;;;;;;;7.82;1.98;;;27.40;65.20;;;;;;5110686;28;20209;-69
2022/07/05 06:43:10;;;;;;;3.47;2.10;;;27.50;64.60;;;;;;5109944;28;20520;-69
2022/07/05 06:45:36;;;;;;;3.63;1.70;;;27.60;64.40;;;;;;5112795;28;20088;-68
2022/07/05 06:48:03;;;;;;;3.63;2.00;;;27.60;63.00;;;;;;5112615;28;20096;-67
2022/07/05 06:50:31;;;;;;;4.82;2.28;;;27.60;63.20;;;;;;5112993;28;20403;-72
2022/07/05 06:52:58;;;;;;;16.27;2.30;;;27.70;63.00;;;;;;5108025;28;20029;-69
2022/07/05 06:55:26;;;;;;;6.97;2.20;;;27.70;62.60;;;;;;5113238;28;20126;-67
2022/07/05 06:58:05;;;;;;;4.65;2.10;;;27.80;62.60;;;;;;5113196;28;20046;-66
2022/07/05 07:00:31;;;;;;;5.70;2.50;;;27.80;62.60;;;;;;5112467;28;20122;-68
2022/07/05 07:02:58;;;;;;;7.97;2.45;;;27.90;62.40;;;;;;5113126;28;20080;-67
2022/07/05 07:05:24;;;;;;;7.32;2.45;;;27.90;62.40;;;;;;5112944;28;20039;-66
2022/07/05 07:10:34;;;;;;;5.93;2.00;;;28.00;62.10;;;;;;5113398;28;20120;-67
2022/07/05 07:13:00;;;;;;;4.63;2.17;;;28.10;62.10;;;;;;5112899;28;20489;-66
2022/07/05 07:15:27;;;;;;;5.20;2.50;;;28.10;62.00;;;;;;5112355;28;20814;-66
2022/07/05 07:17:53;;;;;;;5.30;2.33;;;28.20;61.80;;;;;;5112774;28;20048;-66
2022/07/05 07:20:18;;;;;;;4.63;2.20;;;28.30;61.00;;;;;;5116766;28;20027;-67
2022/07/05 07:22:44;;;;;;;9.73;2.35;;;28.30;60.80;;;;;;5117199;28;20071;-66
2022/07/05 07:25:11;;;;;;;8.30;2.42;;;28.30;61.50;;;;;;5116843;28;20037;-67
2022/07/05 07:27:54;;;;;;;3.38;2.20;;;28.40;61.60;;;;;;5117066;28;20043;-67
2022/07/05 07:30:25;;;;;;;5.43;2.20;;;28.40;61.40;;;;;;5117081;28;20034;-68
2022/07/05 07:32:51;;;;;;;9.75;2.53;;;28.50;61.20;;;;;;5117141;27;20078;-67
2022/07/05 07:35:16;;;;;;;5.60;2.53;;;28.60;61.30;;;;;;5116897;28;20438;-67
2022/07/05 07:37:42;;;;;;;5.60;2.03;;;28.70;59.50;;;;;;5116584;28;20039;-68
2022/07/05 07:40:09;;;;;;;6.18;2.33;;;28.80;59.10;;;;;;5116705;28;20045;-67
2022/07/05 07:42:35;;;;;;;5.70;2.92;;;28.70;58.20;;;;;;5117130;28;20042;-67
2022/07/05 07:45:04;;;;;;;5.20;2.10;;;28.80;58.20;;;;;;5116837;28;20035;-66
2022/07/05 07:47:34;;;;;;;6.85;2.28;;;28.90;57.90;;;;;;5116411;28;20039;-67
2022/07/05 07:50:00;;;;;;;3.75;2.00;;;28.90;57.50;;;;;;5116835;28;20366;-69
2022/07/05 07:52:26;;;;;;;4.28;2.10;;;29.00;57.10;;;;;;5116748;28;20032;-67
2022/07/05 07:54:52;;;;;;;4.50;1.80;;;29.10;57.30;;;;;;5115986;28;20363;-67
2022/07/05 07:57:18;;;;;;;4.40;2.08;;;29.10;56.40;;;;;;5116481;28;20047;-67
2022/07/05 07:59:44;;;;;;;6.45;2.00;;;29.20;56.60;;;;;;5116895;28;20072;-67
2022/07/05 08:02:10;;;;;;;8.00;1.90;;;29.20;56.50;;;;;;5116590;28;20420;-67
2022/07/05 08:04:36;;;;;;;5.80;2.38;;;29.30;56.00;;;;;;5116600;28;20108;-67
2022/07/05 08:07:03;;;;;;;5.38;2.60;;;29.30;54.90;;;;;;5116493;28;20039;-67
2022/07/05 08:09:29;;;;;;;6.38;2.00;;;29.40;55.50;;;;;;5116232;28;20044;-67
2022/07/05 08:11:55;;;;;;;3.88;1.88;;;29.50;55.10;;;;;;5116444;28;20028;-67
2022/07/05 08:14:22;;;;;;;4.18;1.67;;;29.50;54.90;;;;;;5116272;28;20028;-67
2022/07/05 08:16:49;;;;;;;5.72;2.17;;;29.50;54.60;;;;;;5114339;28;20071;-67
2022/07/05 08:22:01;;;;;;;7.13;2.35;;;29.70;54.60;;;;;;5115650;28;20062;-66
2022/07/05 08:24:27;;;;;;;5.32;1.73;;;29.70;54.10;;;;;;5116116;28;20089;-67
2022/07/05 08:26:52;;;;;;;3.38;1.83;;;29.80;53.30;;;;;;5116203;28;20465;-67
2022/07/05 08:29:18;;;;;;;4.55;1.80;;;29.80;52.80;;;;;;5115737;28;20039;-68
2022/07/05 08:31:47;;;;;;;5.40;2.60;;;29.80;51.80;;;;;;5116147;28;20461;-68
2022/07/05 08:34:13;;;;;;;5.35;1.92;;;29.90;52.60;;;;;;5115936;28;20027;-68
2022/07/05 08:36:41;;;;;;;6.80;1.83;;;29.90;52.20;;;;;;5115904;28;20036;-68
2022/07/05 08:39:08;;;;;;;9.90;1.98;;;29.90;51.60;;;;;;5116022;28;20032;-68
2022/07/05 08:41:38;;;;;;;6.50;2.20;;;;;;;;;;5115977;28;20032;-70
2022/07/05 08:44:04;;;;;;;9.98;2.55;;;30.00;51.10;;;;;;5115991;28;20122;-71
2022/07/05 08:46:32;;;;;;;5.80;2.08;;;30.10;52.80;;;;;;5115823;28;20233;-68
2022/07/05 08:49:01;;;;;;;8.90;2.05;;;30.10;52.60;;;;;;5115412;28;20062;-68
2022/07/05 08:51:28;;;;;;;10.23;2.15;;;30.20;50.10;;;;;;5115782;28;20092;-68
2022/07/05 08:53:57;;;;;;;9.52;1.92;;;30.20;52.80;;;;;;5115757;28;20055;-68
2022/07/05 08:56:23;;;;;;;5.00;1.90;;;30.20;52.40;;;;;;5115868;28;20366;-68
2022/07/05 08:58:49;;;;;;;3.72;1.90;;;30.30;51.50;;;;;;5115317;28;20481;-68
2022/07/05 09:01:16;;;;;;;2.38;1.48;;;30.30;51.00;;;;;;5114771;28;20036;-68
2022/07/05 09:03:49;;;;;;;4.35;1.50;;;30.40;50.50;;;;;;5115168;28;20028;-68
2022/07/05 09:06:25;;;;;;;3.25;1.95;;;30.40;50.30;;;;;;5115506;28;20558;-68
2022/07/05 09:08:54;;;;;;;4.90;1.35;;;30.50;49.30;;;;;;5112851;28;20093;-68
2022/07/05 09:11:25;;;;;;;9.77;1.90;;;30.40;48.80;;;;;;5112224;28;20374;-70
2022/07/05 09:13:51;;;;;;;;;;;30.50;48.90;;;;;;5112950;28;20063;-69
2022/07/05 09:16:17;;;;;;;6.82;1.65;;;30.40;49.50;;;;;;5114673;28;19959;-69
2022/07/05 09:18:47;;;;;;;5.40;1.52;;;30.40;48.90;;;;;;5114776;28;20027;-71
2022/07/05 09:21:17;;;;;;;3.22;1.42;;;30.50;49.40;;;;;;5115045;28;20032;-69
2022/07/05 09:23:45;;;;;;;6.78;2.42;;;30.50;49.30;;;;;;5114724;28;20074;-69
2022/07/05 09:26:10;;;;;;;4.57;1.70;;;30.60;50.10;;;;;;5114778;28;20031;-69
2022/07/05 09:28:36;;;;;;;6.72;1.50;;;30.70;49.70;;;;;;5114375;28;20505;-72
2022/07/05 09:31:02;;;;;;;6.13;2.05;;;30.80;48.70;;;;;;5114817;28;20060;-73
2022/07/05 09:33:28;;;;;;;5.38;2.17;;;30.90;48.50;;;;;;5114613;28;20059;-72
2022/07/05 09:35:59;;;;;;;2.55;1.23;;;31.00;47.70;;;;;;5114492;28;20160;-70
2022/07/05 09:38:26;;;;;;;4.30;1.40;;;31.20;45.20;;;;;;5113810;28;20482;-69
2022/07/05 09:40:54;;;;;;;2.65;1.05;;;31.20;45.30;;;;;;5113010;28;20031;-69
2022/07/05 09:43:25;;;;;;;2.60;1.30;;;31.20;44.00;;;;;;5113882;28;20038;-70
2022/07/05 09:46:04;;;;;;;4.97;1.40;;;31.20;45.20;;;;;;5113920;28;20028;-70
2022/07/05 09:48:32;;;;;;;2.50;1.05;;;31.20;46.10;;;;;;5113478;28;20762;-69
2022/07/05 09:51:24;;;;;;;6.70;1.30;;;31.20;46.20;;;;;;5113448;28;20541;-70
2022/07/05 09:53:55;;;;;;;3.55;1.35;;;31.30;45.20;;;;;;5110897;28;20357;-68
2022/07/05 09:56:22;;;;;;;3.83;1.27;;;31.40;44.10;;;;;;5113595;28;20039;-68
2022/07/05 09:58:48;;;;;;;6.35;1.52;;;;;;;;;;5113505;28;20063;-69
2022/07/05 10:01:23;;;;;;;5.32;1.25;;;;;;;;;;5113359;28;20524;-69
2022/07/05 10:04:01;;;;;;;3.00;1.00;;;;;;;;;;5113157;28;20032;-68
2022/07/05 10:06:28;;;;;;;2.70;1.38;;;;;;;;;;5113271;28;20108;-68
2022/07/05 10:08:54;;;;;;;8.63;1.40;;;31.50;43.20;;;;;;5113196;28;20048;-69
2022/07/05 10:11:21;;;;;;;1.88;0.80;;;31.60;42.60;;;;;;5113168;28;20031;-71
2022/07/05 10:13:48;;;;;;;2.45;1.02;;;31.60;42.10;;;;;;5113356;28;20080;-69
2022/07/05 10:16:16;;;;;;;4.15;0.93;;;31.70;41.80;;;;;;5112317;28;20043;-70
2022/07/05 10:18:47;;;;;;;9.02;1.13;;;31.70;42.70;;;;;;5112283;28;20035;-70
2022/07/05 10:21:14;;;;;;;4.75;1.30;;;31.80;42.80;;;;;;5112850;28;20086;-70
2022/07/05 10:23:48;;;;;;;3.35;1.00;;;31.80;42.40;;;;;;5113361;28;20218;-70
2022/07/05 10:26:16;;;;;;;1.83;0.90;;;31.90;42.40;;;;;;5112709;28;20034;-70
2022/07/05 10:28:46;;;;;;;4.40;1.10;;;31.90;42.10;;;;;;5112365;28;20051;-69
2022/07/05 10:31:16;;;;;;;12.95;1.52;;;31.90;42.20;;;;;;5111800;28;20027;-70
2022/07/05 10:33:42;;;;;;;2.78;0.90;;;32.00;42.80;;;;;;5111577;28;20036;-70
2022/07/05 10:36:10;;;;;;;4.30;1.15;;;32.10;42.70;;;;;;5110610;28;20402;-71
2022/07/05 10:38:38;;;;;;;9.77;1.00;;;32.10;42.50;;;;;;5111039;28;20143;-70
2022/07/05 10:41:08;;;;;;;3.85;1.27;;;32.20;41.70;;;;;;5111108;28;20058;-70
2022/07/05 10:43:34;;;;;;;2.00;1.08;;;32.20;41.60;;;;;;5110794;28;20036;-68
2022/07/05 10:46:02;;;;;;;2.10;1.00;;;32.30;42.00;;;;;;5109951;27;20028;-70
2022/07/05 10:48:29;;;;;;;3.63;0.98;;;32.30;41.80;;;;;;5110600;28;20051;-69
2022/07/05 10:51:07;;;;;;;2.72;1.00;;;32.30;41.40;;;;;;5110908;28;20027;-68
2022/07/05 10:53:35;;;;;;;3.40;0.73;;;32.40;41.10;;;;;;5110376;28;20082;-71
2022/07/05 10:56:04;;;;;;;1.90;1.15;;;32.40;40.70;;;;;;5111234;28;20441;-70
2022/07/05 10:58:30;;;;;;;3.05;1.10;;;32.40;40.80;;;;;;5110508;28;20127;-71
2022/07/05 11:01:17;;;;;;;2.55;0.80;;;32.40;41.00;;;;;;5109532;28;20115;-69
2022/07/05 11:04:00;;;;;;;3.85;1.08;;;32.50;41.30;;;;;;5110562;28;20088;-68
2022/07/05 11:06:30;;;;;;;0.98;0.80;;;32.60;41.70;;;;;;5110146;28;20040;-68
2022/07/05 11:09:05;;;;;;;1.98;1.00;;;32.60;42.10;;;;;;5110798;28;20043;-68
2022/07/05 11:11:50;;;;;;;4.35;1.30;;;32.70;40.70;;;;;;5111490;28;20065;-68
2022/07/05 11:14:22;;;;;;;1.58;0.93;;;32.80;40.50;;;;;;5111506;28;20396;-68
2022/07/05 11:17:08;;;;;;;2.65;1.15;;;32.80;41.00;;;;;;5111024;28;20043;-69
2022/07/05 11:19:34;;;;;;;2.10;1.02;;;32.80;41.10;;;;;;5111124;28;20482;-68
2022/07/05 11:22:06;;;;;;;3.95;1.20;;;32.80;41.10;;;;;;5110562;28;20107;-68
2022/07/05 11:24:36;;;;;;;2.85;0.90;;;32.90;41.00;;;;;;5110364;28;20103;-69
2022/07/05 11:27:08;;;;;;;3.67;1.00;;;33.00;40.70;;;;;;5110983;28;20032;-68
2022/07/05 11:29:42;;;;;;;2.78;1.02;;;33.00;40.30;;;;;;5111017;28;20088;-67
2022/07/05 11:32:15;;;;;;;3.80;1.15;;;33.00;40.30;;;;;;5111220;28;20067;-69
2022/07/05 11:34:44;;;;;;;3.10;1.02;;;33.10;40.20;;;;;;5111480;28;20039;-69
2022/07/05 11:37:18;;;;;;;3.20;1.27;;;33.10;40.10;;;;;;5110483;28;20039;-70
2022/07/05 11:39:48;;;;;;;3.78;1.23;;;33.20;39.80;;;;;;5111335;28;20035;-70
2022/07/05 11:42:21;;;;;;;3.77;1.03;;;33.20;39.80;;;;;;5111317;28;20064;-70
2022/07/05 11:44:50;;;;;;;1.05;0.82;;;33.20;40.10;;;;;;5110746;28;20032;-70
2022/07/05 11:47:16;;;;;;;6.53;1.10;;;33.20;40.20;;;;;;5110640;28;20175;-70
2022/07/05 11:49:53;;;;;;;1.45;0.80;;;33.30;39.60;;;;;;5112005;28;20042;-69
2022/07/05 11:52:25;;;;;;;3.03;1.00;;;33.40;39.50;;;;;;5111817;28;20385;-69
2022/07/05 11:54:51;;;;;;;1.73;0.90;;;33.40;39.80;;;;;;5110688;28;20492;-70
2022/07/05 11:57:19;;;;;;;3.10;1.00;;;33.40;39.40;;;;;;5111535;28;20039;-69
2022/07/05 11:59:45;;;;;;;4.45;1.00;;;33.50;39.60;;;;;;5109317;28;20045;-70
2022/07/05 12:02:11;;;;;;;3.28;1.10;;;33.40;39.10;;;;;;5108948;28;20093;-69
2022/07/05 12:04:37;;;;;;;1.92;1.13;;;33.40;38.90;;;;;;5110241;28;20040;-70
2022/07/05 12:07:03;;;;;;;2.20;0.90;;;33.40;38.80;;;;;;5115399;28;20049;-70
2022/07/05 12:15:08;;;;;;;4.25;0.98;;;33.40;38.50;;;;;;5115722;28;20038;-70
2022/07/05 12:17:36;;;;;;;1.77;0.90;;;33.40;38.60;;;;;;5115248;28;20421;-70
2022/07/05 12:20:03;;;;;;;3.05;0.90;;;33.40;38.70;;;;;;5114602;28;20413;-69
2022/07/05 12:22:29;;;;;;;4.47;0.90;;;33.40;38.60;;;;;;5115096;28;20423;-69
2022/07/05 12:24:55;;;;;;;2.03;0.90;;;33.40;37.50;;;;;;5115215;28;20027;-70
2022/07/05 12:27:21;;;;;;;2.35;0.93;;;33.50;37.70;;;;;;5114946;28;20034;-68
2022/07/05 12:29:46;;;;;;;3.53;1.10;;;33.60;37.70;;;;;;5115527;28;20024;-69
2022/07/05 12:32:12;;;;;;;1.20;0.70;;;33.60;37.30;;;;;;5114770;28;20042;-71
2022/07/05 12:34:38;;;;;;;2.03;1.00;;;33.60;37.20;;;;;;5115984;28;20031;-71
2022/07/05 12:37:04;;;;;;;1.50;0.90;;;33.60;37.60;;;;;;5115592;28;20040;-70
2022/07/05 12:39:29;;;;;;;3.33;1.10;;;33.70;38.70;;;;;;5116074;28;20024;-70
2022/07/05 12:41:56;;;;;;;8.95;1.10;;;33.70;38.80;;;;;;5115858;28;20046;-70
2022/07/05 12:44:22;;;;;;;4.45;1.00;;;33.80;38.70;;;;;;5115326;28;20393;-69
2022/07/05 12:46:51;;;;;;;3.45;1.10;;;33.80;39.00;;;;;;5115932;28;20114;-69
2022/07/05 12:49:18;;;;;;;2.15;1.00;;;33.80;38.90;;;;;;5113049;28;20093;-70
2022/07/05 12:51:45;;;;;;;4.15;1.13;;;33.80;39.30;;;;;;5112378;28;20551;-69
2022/07/05 13:00:17;;;;;;;12.73;1.50;;;33.70;42.90;;;;;;5112482;28;20144;-69
2022/07/05 13:02:46;;;;;;;16.38;1.48;;;33.60;43.10;;;;;;5110114;28;20078;-69
2022/07/05 13:05:23;;;;;;;7.78;1.67;;;33.40;43.10;;;;;;5115176;28;20445;-69
2022/07/05 13:07:51;;;;;;;8.95;1.08;;;33.20;43.10;;;;;;5115023;28;20048;-70